sensor_id;sensor_type;location;lat;lon;timestamp;P1;durP1;ratioP1;P2;durP2;ratioP2
545;SDS011;259;53.304;9.816;2023-03-24T00:02:04;1.40;;;0.70;;
545;SDS011;259;53.304;9.816;2023-03-24T00:04:31;0.63;;;0.63;;
545;SDS011;259;53.304;9.816;2023-03-24T00:06:58;0.70;;;0.65;;
545;SDS011;259;53.304;9.816;2023-03-24T00:09:28;0.90;;;0.90;;
545;SDS011;259;53.304;9.816;2023-03-24T00:11:57;1.10;;;1.00;;
545;SDS011;259;53.304;9.816;2023-03-24T00:14:23;0.73;;;0.70;;
545;SDS011;259;53.304;9.816;2023-03-24T00:16:49;1.00;;;0.83;;
545;SDS011;259;53.304;9.816;2023-03-24T00:19:16;0.97;;;0.97;;
545;SDS011;259;53.304;9.816;2023-03-24T00:21:44;0.60;;;0.60;;
545;SDS011;259;53.304;9.816;2023-03-24T00:24:10;0.70;;;0.67;;
545;SDS011;259;53.304;9.816;2023-03-24T00:26:37;0.70;;;0.70;;
545;SDS011;259;53.304;9.816;2023-03-24T00:29:05;1.30;;;1.20;;
545;SDS011;259;53.304;9.816;2023-03-24T00:31:35;0.70;;;0.70;;
545;SDS011;259;53.304;9.816;2023-03-24T00:34:04;1.00;;;0.90;;
545;SDS011;259;53.304;9.816;2023-03-24T00:36:32;0.70;;;0.70;;
545;SDS011;259;53.304;9.816;2023-03-24T00:39:00;0.97;;;0.97;;
545;SDS011;259;53.304;9.816;2023-03-24T00:41:26;0.70;;;0.57;;
545;SDS011;259;53.304;9.816;2023-03-24T00:43:54;0.80;;;0.70;;
545;SDS011;259;53.304;9.816;2023-03-24T00:46:25;1.63;;;0.90;;
545;SDS011;259;53.304;9.816;2023-03-24T00:49:02;0.90;;;0.90;;
545;SDS011;259;53.304;9.816;2023-03-24T00:51:31;0.70;;;0.63;;
545;SDS011;259;53.304;9.816;2023-03-24T00:54:04;0.83;;;0.70;;
545;SDS011;259;53.304;9.816;2023-03-24T00:56:33;1.80;;;0.80;;
545;SDS011;259;53.304;9.816;2023-03-24T00:59:02;0.98;;;0.70;;
545;SDS011;259;53.304;9.816;2023-03-24T01:01:29;0.80;;;0.80;;
545;SDS011;259;53.304;9.816;2023-03-24T01:03:58;0.80;;;0.80;;
545;SDS011;259;53.304;9.816;2023-03-24T01:06:26;0.90;;;0.90;;
545;SDS011;259;53.304;9.816;2023-03-24T01:08:52;0.73;;;0.63;;
545;SDS011;259;53.304;9.816;2023-03-24T01:11:22;0.70;;;0.60;;
545;SDS011;259;53.304;9.816;2023-03-24T01:13:50;0.90;;;0.90;;
545;SDS011;259;53.304;9.816;2023-03-24T01:16:17;1.07;;;0.70;;
545;SDS011;259;53.304;9.816;2023-03-24T01:18:43;0.75;;;0.75;;
545;SDS011;259;53.304;9.816;2023-03-24T01:21:10;0.70;;;0.70;;
545;SDS011;259;53.304;9.816;2023-03-24T01:23:37;1.10;;;1.00;;
545;SDS011;259;53.304;9.816;2023-03-24T01:26:07;0.70;;;0.60;;
545;SDS011;259;53.304;9.816;2023-03-24T01:28:35;0.80;;;0.80;;
545;SDS011;259;53.304;9.816;2023-03-24T01:31:05;0.90;;;0.90;;
545;SDS011;259;53.304;9.816;2023-03-24T01:33:33;0.80;;;0.80;;
545;SDS011;259;53.304;9.816;2023-03-24T01:36:00;0.77;;;0.77;;
545;SDS011;259;53.304;9.816;2023-03-24T01:38:25;0.70;;;0.70;;
545;SDS011;259;53.304;9.816;2023-03-24T01:40:51;0.80;;;0.80;;
545;SDS011;259;53.304;9.816;2023-03-24T01:43:21;1.10;;;0.80;;
545;SDS011;259;53.304;9.816;2023-03-24T01:48:44;0.77;;;0.77;;
545;SDS011;259;53.304;9.816;2023-03-24T01:51:34;0.60;;;0.57;;
545;SDS011;259;53.304;9.816;2023-03-24T01:56:46;1.10;;;1.07;;
545;SDS011;259;53.304;9.816;2023-03-24T01:59:20;0.70;;;0.70;;
545;SDS011;259;53.304;9.816;2023-03-24T02:01:51;0.73;;;0.73;;
545;SDS011;259;53.304;9.816;2023-03-24T02:04:26;0.90;;;0.90;;
545;SDS011;259;53.304;9.816;2023-03-24T02:07:06;1.20;;;1.10;;
545;SDS011;259;53.304;9.816;2023-03-24T02:09:49;0.73;;;0.73;;
545;SDS011;259;53.304;9.816;2023-03-24T02:12:15;0.70;;;0.70;;
545;SDS011;259;53.304;9.816;2023-03-24T02:14:41;0.90;;;0.80;;
545;SDS011;259;53.304;9.816;2023-03-24T02:17:13;0.77;;;0.77;;
545;SDS011;259;53.304;9.816;2023-03-24T02:23:05;0.80;;;0.60;;
545;SDS011;259;53.304;9.816;2023-03-24T02:25:55;0.70;;;0.70;;
545;SDS011;259;53.304;9.816;2023-03-24T02:29:33;0.80;;;0.80;;
545;SDS011;259;53.304;9.816;2023-03-24T02:41:10;0.80;;;0.80;;
545;SDS011;259;53.304;9.816;2023-03-24T02:55:21;0.80;;;0.60;;
545;SDS011;259;53.304;9.816;2023-03-24T02:57:57;0.70;;;0.70;;
545;SDS011;259;53.304;9.816;2023-03-24T03:00:49;0.80;;;0.80;;
545;SDS011;259;53.304;9.816;2023-03-24T03:03:31;0.77;;;0.77;;
545;SDS011;259;53.304;9.816;2023-03-24T03:06:19;0.80;;;0.80;;
545;SDS011;259;53.304;9.816;2023-03-24T03:08:56;0.80;;;0.70;;
545;SDS011;259;53.304;9.816;2023-03-24T03:11:26;0.70;;;0.70;;
545;SDS011;259;53.304;9.816;2023-03-24T03:13:56;0.90;;;0.80;;
545;SDS011;259;53.304;9.816;2023-03-24T03:16:36;0.97;;;0.87;;
545;SDS011;259;53.304;9.816;2023-03-24T03:19:14;0.80;;;0.80;;
545;SDS011;259;53.304;9.816;2023-03-24T03:21:46;0.90;;;0.80;;
545;SDS011;259;53.304;9.816;2023-03-24T03:24:19;0.80;;;0.80;;
545;SDS011;259;53.304;9.816;2023-03-24T03:27:02;0.90;;;0.90;;
545;SDS011;259;53.304;9.816;2023-03-24T03:29:33;0.73;;;0.73;;
545;SDS011;259;53.304;9.816;2023-03-24T03:32:06;0.83;;;0.83;;
545;SDS011;259;53.304;9.816;2023-03-24T03:34:42;0.80;;;0.80;;
545;SDS011;259;53.304;9.816;2023-03-24T03:39:54;0.97;;;0.90;;
545;SDS011;259;53.304;9.816;2023-03-24T03:42:23;1.37;;;1.00;;
545;SDS011;259;53.304;9.816;2023-03-24T03:44:49;0.77;;;0.77;;
545;SDS011;259;53.304;9.816;2023-03-24T03:47:15;0.70;;;0.60;;
545;SDS011;259;53.304;9.816;2023-03-24T03:49:43;0.95;;;0.93;;
545;SDS011;259;53.304;9.816;2023-03-24T03:52:10;0.90;;;0.77;;
545;SDS011;259;53.304;9.816;2023-03-24T03:54:36;2.03;;;1.07;;
545;SDS011;259;53.304;9.816;2023-03-24T03:57:03;1.53;;;1.03;;
545;SDS011;259;53.304;9.816;2023-03-24T03:59:34;1.03;;;0.87;;
545;SDS011;259;53.304;9.816;2023-03-24T04:08:31;0.70;;;0.70;;
545;SDS011;259;53.304;9.816;2023-03-24T04:23:18;0.80;;;0.80;;
545;SDS011;259;53.304;9.816;2023-03-24T04:29:16;0.63;;;0.63;;
545;SDS011;259;53.304;9.816;2023-03-24T04:32:13;0.90;;;0.90;;
545;SDS011;259;53.304;9.816;2023-03-24T04:34:45;1.27;;;0.90;;
545;SDS011;259;53.304;9.816;2023-03-24T04:37:19;1.00;;;0.90;;
545;SDS011;259;53.304;9.816;2023-03-24T04:39:50;0.80;;;0.80;;
545;SDS011;259;53.304;9.816;2023-03-24T04:42:20;0.80;;;0.80;;
545;SDS011;259;53.304;9.816;2023-03-24T04:44:55;0.90;;;0.90;;
545;SDS011;259;53.304;9.816;2023-03-24T04:47:23;0.80;;;0.80;;
545;SDS011;259;53.304;9.816;2023-03-24T04:49:59;0.80;;;0.80;;
545;SDS011;259;53.304;9.816;2023-03-24T04:52:26;1.20;;;1.10;;
545;SDS011;259;53.304;9.816;2023-03-24T04:54:51;0.60;;;0.60;;
545;SDS011;259;53.304;9.816;2023-03-24T04:57:17;1.03;;;0.90;;
545;SDS011;259;53.304;9.816;2023-03-24T04:59:43;0.93;;;0.93;;
545;SDS011;259;53.304;9.816;2023-03-24T05:02:10;1.00;;;0.90;;
545;SDS011;259;53.304;9.816;2023-03-24T05:04:35;1.27;;;1.17;;
545;SDS011;259;53.304;9.816;2023-03-24T05:07:02;1.08;;;0.70;;
545;SDS011;259;53.304;9.816;2023-03-24T05:09:28;1.07;;;0.97;;
545;SDS011;259;53.304;9.816;2023-03-24T05:11:55;1.00;;;1.00;;
545;SDS011;259;53.304;9.816;2023-03-24T05:14:21;0.90;;;0.88;;
545;SDS011;259;53.304;9.816;2023-03-24T05:16:48;1.13;;;1.00;;
545;SDS011;259;53.304;9.816;2023-03-24T05:19:14;0.90;;;0.90;;
545;SDS011;259;53.304;9.816;2023-03-24T05:21:40;0.70;;;0.70;;
545;SDS011;259;53.304;9.816;2023-03-24T05:24:06;1.20;;;1.10;;
545;SDS011;259;53.304;9.816;2023-03-24T05:26:32;0.90;;;0.80;;
545;SDS011;259;53.304;9.816;2023-03-24T05:28:59;2.53;;;1.20;;
545;SDS011;259;53.304;9.816;2023-03-24T05:31:24;0.70;;;0.70;;
545;SDS011;259;53.304;9.816;2023-03-24T05:33:50;1.67;;;0.90;;
545;SDS011;259;53.304;9.816;2023-03-24T05:36:16;0.93;;;0.80;;
545;SDS011;259;53.304;9.816;2023-03-24T05:38:42;0.77;;;0.77;;
545;SDS011;259;53.304;9.816;2023-03-24T05:41:07;1.10;;;0.90;;
545;SDS011;259;53.304;9.816;2023-03-24T05:43:33;1.10;;;0.97;;
545;SDS011;259;53.304;9.816;2023-03-24T05:45:59;1.00;;;0.90;;
545;SDS011;259;53.304;9.816;2023-03-24T05:48:25;1.03;;;0.90;;
545;SDS011;259;53.304;9.816;2023-03-24T05:50:51;0.70;;;0.70;;
545;SDS011;259;53.304;9.816;2023-03-24T05:53:18;1.63;;;1.10;;
545;SDS011;259;53.304;9.816;2023-03-24T05:55:44;0.80;;;0.80;;
545;SDS011;259;53.304;9.816;2023-03-24T05:58:10;1.00;;;0.87;;
545;SDS011;259;53.304;9.816;2023-03-24T06:00:36;0.90;;;0.90;;
545;SDS011;259;53.304;9.816;2023-03-24T06:03:02;1.00;;;0.90;;
545;SDS011;259;53.304;9.816;2023-03-24T06:05:29;1.17;;;1.00;;
545;SDS011;259;53.304;9.816;2023-03-24T06:07:56;1.20;;;1.10;;
545;SDS011;259;53.304;9.816;2023-03-24T06:10:26;0.90;;;0.90;;
545;SDS011;259;53.304;9.816;2023-03-24T06:12:53;1.00;;;0.80;;
545;SDS011;259;53.304;9.816;2023-03-24T06:15:20;1.13;;;1.00;;
545;SDS011;259;53.304;9.816;2023-03-24T06:17:48;0.93;;;0.93;;
545;SDS011;259;53.304;9.816;2023-03-24T06:20:15;1.20;;;1.10;;
545;SDS011;259;53.304;9.816;2023-03-24T06:22:43;1.10;;;1.00;;
545;SDS011;259;53.304;9.816;2023-03-24T06:25:11;1.10;;;1.00;;
545;SDS011;259;53.304;9.816;2023-03-24T06:27:41;0.80;;;0.80;;
545;SDS011;259;53.304;9.816;2023-03-24T06:30:10;1.33;;;1.23;;
545;SDS011;259;53.304;9.816;2023-03-24T06:32:39;0.80;;;0.80;;
545;SDS011;259;53.304;9.816;2023-03-24T06:35:06;1.07;;;1.00;;
545;SDS011;259;53.304;9.816;2023-03-24T06:37:32;1.00;;;0.90;;
545;SDS011;259;53.304;9.816;2023-03-24T06:39:57;0.90;;;0.90;;
545;SDS011;259;53.304;9.816;2023-03-24T06:42:24;1.13;;;1.00;;
545;SDS011;259;53.304;9.816;2023-03-24T06:44:51;0.90;;;0.90;;
545;SDS011;259;53.304;9.816;2023-03-24T06:47:16;0.93;;;0.90;;
545;SDS011;259;53.304;9.816;2023-03-24T06:49:43;1.03;;;0.93;;
545;SDS011;259;53.304;9.816;2023-03-24T06:52:09;1.07;;;1.00;;
545;SDS011;259;53.304;9.816;2023-03-24T06:54:35;0.83;;;0.83;;
545;SDS011;259;53.304;9.816;2023-03-24T06:57:01;0.80;;;0.80;;
545;SDS011;259;53.304;9.816;2023-03-24T06:59:27;1.23;;;1.13;;
545;SDS011;259;53.304;9.816;2023-03-24T07:01:52;1.07;;;0.97;;
545;SDS011;259;53.304;9.816;2023-03-24T07:04:19;1.00;;;1.00;;
545;SDS011;259;53.304;9.816;2023-03-24T07:06:45;0.90;;;0.90;;
545;SDS011;259;53.304;9.816;2023-03-24T07:09:11;1.70;;;1.60;;
545;SDS011;259;53.304;9.816;2023-03-24T07:11:38;1.10;;;0.93;;
545;SDS011;259;53.304;9.816;2023-03-24T07:14:04;2.93;;;1.50;;
545;SDS011;259;53.304;9.816;2023-03-24T07:16:30;3.03;;;1.30;;
545;SDS011;259;53.304;9.816;2023-03-24T07:18:55;2.20;;;1.30;;
545;SDS011;259;53.304;9.816;2023-03-24T07:21:21;4.20;;;1.40;;
545;SDS011;259;53.304;9.816;2023-03-24T07:23:47;3.37;;;1.57;;
545;SDS011;259;53.304;9.816;2023-03-24T07:26:12;3.00;;;1.80;;
545;SDS011;259;53.304;9.816;2023-03-24T07:28:38;1.63;;;1.10;;
545;SDS011;259;53.304;9.816;2023-03-24T07:31:04;2.50;;;1.43;;
545;SDS011;259;53.304;9.816;2023-03-24T07:33:34;2.30;;;0.90;;
545;SDS011;259;53.304;9.816;2023-03-24T07:36:02;1.30;;;1.20;;
545;SDS011;259;53.304;9.816;2023-03-24T07:38:28;3.30;;;1.30;;
545;SDS011;259;53.304;9.816;2023-03-24T07:40:56;1.63;;;1.10;;
545;SDS011;259;53.304;9.816;2023-03-24T07:43:23;1.67;;;1.00;;
545;SDS011;259;53.304;9.816;2023-03-24T07:45:49;1.43;;;1.10;;
545;SDS011;259;53.304;9.816;2023-03-24T07:48:15;1.30;;;1.20;;
545;SDS011;259;53.304;9.816;2023-03-24T07:50:40;4.30;;;1.57;;
545;SDS011;259;53.304;9.816;2023-03-24T07:53:06;16.27;;;2.07;;
545;SDS011;259;53.304;9.816;2023-03-24T07:55:38;8.53;;;2.53;;
545;SDS011;259;53.304;9.816;2023-03-24T07:58:04;5.50;;;1.97;;
545;SDS011;259;53.304;9.816;2023-03-24T08:00:30;14.97;;;2.90;;
545;SDS011;259;53.304;9.816;2023-03-24T08:02:56;9.03;;;2.13;;
545;SDS011;259;53.304;9.816;2023-03-24T08:05:24;6.07;;;1.50;;
545;SDS011;259;53.304;9.816;2023-03-24T08:07:53;8.87;;;1.87;;
545;SDS011;259;53.304;9.816;2023-03-24T08:10:25;13.48;;;2.63;;
545;SDS011;259;53.304;9.816;2023-03-24T08:12:55;6.83;;;1.53;;
545;SDS011;259;53.304;9.816;2023-03-24T08:15:22;8.67;;;1.63;;
545;SDS011;259;53.304;9.816;2023-03-24T08:17:50;10.50;;;2.43;;
545;SDS011;259;53.304;9.816;2023-03-24T08:20:16;8.47;;;1.70;;
545;SDS011;259;53.304;9.816;2023-03-24T08:22:45;9.02;;;2.20;;
545;SDS011;259;53.304;9.816;2023-03-24T08:25:14;7.17;;;2.20;;
545;SDS011;259;53.304;9.816;2023-03-24T08:27:42;8.27;;;1.80;;
545;SDS011;259;53.304;9.816;2023-03-24T08:30:09;2.60;;;1.40;;
545;SDS011;259;53.304;9.816;2023-03-24T08:32:47;8.77;;;1.40;;
545;SDS011;259;53.304;9.816;2023-03-24T08:35:22;13.83;;;1.90;;
545;SDS011;259;53.304;9.816;2023-03-24T08:37:55;4.40;;;1.80;;
545;SDS011;259;53.304;9.816;2023-03-24T08:40:23;13.23;;;2.33;;
545;SDS011;259;53.304;9.816;2023-03-24T08:42:52;10.73;;;2.00;;
545;SDS011;259;53.304;9.816;2023-03-24T08:45:21;12.30;;;2.37;;
545;SDS011;259;53.304;9.816;2023-03-24T08:47:51;16.50;;;2.28;;
545;SDS011;259;53.304;9.816;2023-03-24T08:50:20;16.73;;;2.90;;
545;SDS011;259;53.304;9.816;2023-03-24T08:52:48;17.53;;;2.30;;
545;SDS011;259;53.304;9.816;2023-03-24T08:55:15;8.85;;;2.22;;
545;SDS011;259;53.304;9.816;2023-03-24T08:57:42;8.87;;;2.47;;
545;SDS011;259;53.304;9.816;2023-03-24T09:00:08;25.83;;;7.67;;
545;SDS011;259;53.304;9.816;2023-03-24T09:02:39;23.87;;;5.57;;
545;SDS011;259;53.304;9.816;2023-03-24T09:05:10;17.27;;;6.10;;
545;SDS011;259;53.304;9.816;2023-03-24T09:07:37;16.73;;;4.90;;
545;SDS011;259;53.304;9.816;2023-03-24T09:10:04;14.50;;;3.63;;
545;SDS011;259;53.304;9.816;2023-03-24T09:12:32;13.40;;;4.03;;
545;SDS011;259;53.304;9.816;2023-03-24T09:14:58;11.33;;;3.30;;
545;SDS011;259;53.304;9.816;2023-03-24T09:17:24;24.07;;;4.27;;
545;SDS011;259;53.304;9.816;2023-03-24T09:19:50;15.10;;;3.53;;
545;SDS011;259;53.304;9.816;2023-03-24T09:22:16;11.70;;;3.00;;
545;SDS011;259;53.304;9.816;2023-03-24T09:24:41;11.13;;;2.97;;
545;SDS011;259;53.304;9.816;2023-03-24T09:27:08;11.13;;;4.13;;
545;SDS011;259;53.304;9.816;2023-03-24T09:29:34;14.63;;;3.97;;
545;SDS011;259;53.304;9.816;2023-03-24T09:32:00;11.20;;;2.87;;
545;SDS011;259;53.304;9.816;2023-03-24T09:34:26;14.60;;;3.80;;
545;SDS011;259;53.304;9.816;2023-03-24T09:36:52;19.20;;;3.20;;
545;SDS011;259;53.304;9.816;2023-03-24T09:39:17;16.83;;;4.77;;
545;SDS011;259;53.304;9.816;2023-03-24T09:41:43;23.70;;;4.87;;
545;SDS011;259;53.304;9.816;2023-03-24T09:44:22;21.17;;;3.53;;
545;SDS011;259;53.304;9.816;2023-03-24T09:50:05;9.40;;;2.23;;
545;SDS011;259;53.304;9.816;2023-03-24T09:53:06;17.13;;;3.50;;
545;SDS011;259;53.304;9.816;2023-03-24T09:55:42;12.77;;;2.17;;
545;SDS011;259;53.304;9.816;2023-03-24T09:58:09;9.27;;;2.55;;
545;SDS011;259;53.304;9.816;2023-03-24T10:00:36;12.03;;;2.60;;
545;SDS011;259;53.304;9.816;2023-03-24T10:03:11;13.20;;;2.90;;
545;SDS011;259;53.304;9.816;2023-03-24T10:08:47;18.00;;;3.33;;
545;SDS011;259;53.304;9.816;2023-03-24T10:11:36;13.38;;;2.70;;
545;SDS011;259;53.304;9.816;2023-03-24T10:23:48;6.13;;;2.00;;
545;SDS011;259;53.304;9.816;2023-03-24T10:26:30;7.83;;;2.10;;
545;SDS011;259;53.304;9.816;2023-03-24T10:29:33;7.57;;;1.77;;
545;SDS011;259;53.304;9.816;2023-03-24T10:34:30;3.63;;;1.77;;
545;SDS011;259;53.304;9.816;2023-03-24T10:36:58;3.93;;;2.17;;
545;SDS011;259;53.304;9.816;2023-03-24T10:39:27;22.53;;;3.27;;
545;SDS011;259;53.304;9.816;2023-03-24T10:41:54;17.35;;;3.80;;
545;SDS011;259;53.304;9.816;2023-03-24T10:44:22;18.10;;;3.77;;
545;SDS011;259;53.304;9.816;2023-03-24T10:46:50;13.80;;;3.20;;
545;SDS011;259;53.304;9.816;2023-03-24T10:49:20;25.80;;;4.77;;
545;SDS011;259;53.304;9.816;2023-03-24T10:51:48;15.53;;;3.53;;
545;SDS011;259;53.304;9.816;2023-03-24T10:54:21;16.83;;;3.37;;
545;SDS011;259;53.304;9.816;2023-03-24T10:57:00;13.60;;;2.60;;
545;SDS011;259;53.304;9.816;2023-03-24T10:59:30;17.63;;;3.33;;
545;SDS011;259;53.304;9.816;2023-03-24T11:05:34;12.70;;;2.97;;
545;SDS011;259;53.304;9.816;2023-03-24T11:07:43;19.30;;;2.60;;
545;SDS011;259;53.304;9.816;2023-03-24T11:10:16;9.57;;;2.17;;
545;SDS011;259;53.304;9.816;2023-03-24T11:15:24;8.80;;;2.03;;
545;SDS011;259;53.304;9.816;2023-03-24T11:20:31;11.20;;;2.00;;
545;SDS011;259;53.304;9.816;2023-03-24T11:23:03;5.00;;;2.03;;
545;SDS011;259;53.304;9.816;2023-03-24T11:25:36;10.70;;;2.30;;
545;SDS011;259;53.304;9.816;2023-03-24T11:28:08;12.33;;;2.50;;
545;SDS011;259;53.304;9.816;2023-03-24T11:30:45;6.77;;;1.77;;
545;SDS011;259;53.304;9.816;2023-03-24T11:33:20;10.70;;;6.97;;
545;SDS011;259;53.304;9.816;2023-03-24T11:36:04;9.33;;;3.07;;
545;SDS011;259;53.304;9.816;2023-03-24T11:44:30;7.10;;;2.67;;
545;SDS011;259;53.304;9.816;2023-03-24T11:47:09;7.33;;;3.30;;
545;SDS011;259;53.304;9.816;2023-03-24T11:49:56;7.30;;;2.77;;
545;SDS011;259;53.304;9.816;2023-03-24T11:52:52;6.63;;;2.22;;
545;SDS011;259;53.304;9.816;2023-03-24T11:59:26;4.53;;;2.50;;
545;SDS011;259;53.304;9.816;2023-03-24T12:04:59;5.20;;;2.20;;
545;SDS011;259;53.304;9.816;2023-03-24T12:07:55;10.07;;;2.72;;
545;SDS011;259;53.304;9.816;2023-03-24T12:22:36;9.97;;;2.00;;
545;SDS011;259;53.304;9.816;2023-03-24T12:28:36;7.70;;;2.60;;
545;SDS011;259;53.304;9.816;2023-03-24T12:37:24;4.90;;;1.97;;
545;SDS011;259;53.304;9.816;2023-03-24T12:42:43;3.43;;;1.83;;
545;SDS011;259;53.304;9.816;2023-03-24T12:50:54;2.73;;;1.53;;
545;SDS011;259;53.304;9.816;2023-03-24T12:56:39;4.73;;;1.47;;
545;SDS011;259;53.304;9.816;2023-03-24T13:05:00;3.33;;;1.40;;
545;SDS011;259;53.304;9.816;2023-03-24T13:07:31;2.20;;;1.20;;
545;SDS011;259;53.304;9.816;2023-03-24T13:12:47;1.33;;;1.13;;
545;SDS011;259;53.304;9.816;2023-03-24T13:17:56;2.27;;;1.67;;
545;SDS011;259;53.304;9.816;2023-03-24T13:20:42;1.80;;;1.53;;
545;SDS011;259;53.304;9.816;2023-03-24T13:32:03;3.00;;;1.13;;
545;SDS011;259;53.304;9.816;2023-03-24T13:37:15;1.70;;;1.00;;
545;SDS011;259;53.304;9.816;2023-03-24T13:39:57;2.60;;;0.95;;
545;SDS011;259;53.304;9.816;2023-03-24T13:42:32;1.40;;;1.20;;
545;SDS011;259;53.304;9.816;2023-03-24T13:45:23;3.23;;;1.93;;
545;SDS011;259;53.304;9.816;2023-03-24T13:48:02;1.13;;;0.87;;
545;SDS011;259;53.304;9.816;2023-03-24T13:50:37;1.83;;;1.30;;
545;SDS011;259;53.304;9.816;2023-03-24T13:55:58;1.90;;;1.07;;
545;SDS011;259;53.304;9.816;2023-03-24T13:58:25;1.60;;;1.10;;
545;SDS011;259;53.304;9.816;2023-03-24T14:01:32;1.40;;;1.00;;
545;SDS011;259;53.304;9.816;2023-03-24T14:06:44;1.67;;;0.90;;
545;SDS011;259;53.304;9.816;2023-03-24T14:09:19;0.90;;;0.90;;
545;SDS011;259;53.304;9.816;2023-03-24T14:11:48;1.70;;;1.20;;
545;SDS011;259;53.304;9.816;2023-03-24T14:17:43;1.48;;;1.02;;
545;SDS011;259;53.304;9.816;2023-03-24T14:20:28;1.20;;;0.93;;
545;SDS011;259;53.304;9.816;2023-03-24T14:22:59;2.07;;;0.90;;
545;SDS011;259;53.304;9.816;2023-03-24T14:25:31;1.83;;;1.00;;
545;SDS011;259;53.304;9.816;2023-03-24T14:30:56;4.10;;;1.23;;
545;SDS011;259;53.304;9.816;2023-03-24T14:33:37;4.87;;;1.30;;
545;SDS011;259;53.304;9.816;2023-03-24T14:36:04;2.97;;;1.73;;
545;SDS011;259;53.304;9.816;2023-03-24T14:38:35;8.10;;;2.13;;
545;SDS011;259;53.304;9.816;2023-03-24T14:41:06;3.23;;;1.33;;
545;SDS011;259;53.304;9.816;2023-03-24T14:46:04;4.33;;;1.00;;
545;SDS011;259;53.304;9.816;2023-03-24T14:51:57;2.70;;;1.17;;
545;SDS011;259;53.304;9.816;2023-03-24T14:54:38;3.17;;;1.40;;
545;SDS011;259;53.304;9.816;2023-03-24T14:57:20;5.03;;;1.67;;
545;SDS011;259;53.304;9.816;2023-03-24T15:00:09;7.97;;;1.87;;
545;SDS011;259;53.304;9.816;2023-03-24T15:02:49;8.43;;;1.90;;
545;SDS011;259;53.304;9.816;2023-03-24T15:05:21;12.13;;;2.20;;
545;SDS011;259;53.304;9.816;2023-03-24T15:08:15;10.53;;;2.90;;
545;SDS011;259;53.304;9.816;2023-03-24T15:13:36;7.03;;;1.93;;
545;SDS011;259;53.304;9.816;2023-03-24T15:18:34;6.82;;;2.60;;
545;SDS011;259;53.304;9.816;2023-03-24T15:23:50;6.17;;;2.20;;
545;SDS011;259;53.304;9.816;2023-03-24T15:26:18;27.47;;;2.90;;
545;SDS011;259;53.304;9.816;2023-03-24T15:28:52;11.67;;;2.70;;
545;SDS011;259;53.304;9.816;2023-03-24T15:31:24;10.03;;;2.83;;
545;SDS011;259;53.304;9.816;2023-03-24T15:34:00;8.27;;;1.92;;
545;SDS011;259;53.304;9.816;2023-03-24T15:36:54;17.80;;;2.70;;
545;SDS011;259;53.304;9.816;2023-03-24T15:39:28;8.17;;;1.87;;
545;SDS011;259;53.304;9.816;2023-03-24T15:42:04;10.20;;;2.63;;
545;SDS011;259;53.304;9.816;2023-03-24T15:44:35;12.33;;;2.67;;
545;SDS011;259;53.304;9.816;2023-03-24T15:47:04;16.90;;;2.80;;
545;SDS011;259;53.304;9.816;2023-03-24T15:49:59;10.47;;;3.10;;
545;SDS011;259;53.304;9.816;2023-03-24T15:55:00;19.43;;;3.87;;
545;SDS011;259;53.304;9.816;2023-03-24T15:57:42;25.67;;;4.67;;
545;SDS011;259;53.304;9.816;2023-03-24T16:00:13;22.13;;;3.80;;
545;SDS011;259;53.304;9.816;2023-03-24T16:02:48;26.40;;;3.30;;
545;SDS011;259;53.304;9.816;2023-03-24T16:05:21;21.75;;;4.13;;
545;SDS011;259;53.304;9.816;2023-03-24T16:08:02;12.17;;;3.50;;
545;SDS011;259;53.304;9.816;2023-03-24T16:10:40;10.95;;;2.70;;
545;SDS011;259;53.304;9.816;2023-03-24T16:18:33;11.53;;;3.10;;
545;SDS011;259;53.304;9.816;2023-03-24T16:21:23;13.07;;;3.33;;
545;SDS011;259;53.304;9.816;2023-03-24T16:23:50;14.40;;;3.17;;
545;SDS011;259;53.304;9.816;2023-03-24T16:26:19;8.83;;;2.23;;
545;SDS011;259;53.304;9.816;2023-03-24T16:29:05;13.53;;;3.03;;
545;SDS011;259;53.304;9.816;2023-03-24T16:31:38;6.83;;;2.60;;
545;SDS011;259;53.304;9.816;2023-03-24T16:34:03;6.30;;;2.20;;
545;SDS011;259;53.304;9.816;2023-03-24T16:36:29;7.07;;;2.37;;
545;SDS011;259;53.304;9.816;2023-03-24T16:38:56;5.53;;;2.10;;
545;SDS011;259;53.304;9.816;2023-03-24T16:41:23;7.67;;;2.20;;
545;SDS011;259;53.304;9.816;2023-03-24T16:43:49;8.67;;;3.13;;
545;SDS011;259;53.304;9.816;2023-03-24T16:46:21;4.30;;;1.90;;
545;SDS011;259;53.304;9.816;2023-03-24T16:48:51;4.50;;;1.60;;
545;SDS011;259;53.304;9.816;2023-03-24T16:51:17;4.07;;;2.60;;
545;SDS011;259;53.304;9.816;2023-03-24T16:53:43;4.13;;;1.53;;
545;SDS011;259;53.304;9.816;2023-03-24T16:56:11;13.67;;;2.13;;
545;SDS011;259;53.304;9.816;2023-03-24T16:58:40;8.13;;;1.90;;
545;SDS011;259;53.304;9.816;2023-03-24T17:01:19;9.70;;;2.50;;
545;SDS011;259;53.304;9.816;2023-03-24T17:04:12;10.20;;;2.23;;
545;SDS011;259;53.304;9.816;2023-03-24T17:06:44;6.87;;;2.60;;
545;SDS011;259;53.304;9.816;2023-03-24T17:09:17;22.33;;;3.97;;
545;SDS011;259;53.304;9.816;2023-03-24T17:11:43;10.90;;;3.47;;
545;SDS011;259;53.304;9.816;2023-03-24T17:14:18;16.50;;;4.23;;
545;SDS011;259;53.304;9.816;2023-03-24T17:16:44;13.73;;;3.60;;
545;SDS011;259;53.304;9.816;2023-03-24T17:19:15;20.60;;;3.90;;
545;SDS011;259;53.304;9.816;2023-03-24T17:21:46;18.53;;;3.73;;
545;SDS011;259;53.304;9.816;2023-03-24T17:24:31;15.80;;;2.90;;
545;SDS011;259;53.304;9.816;2023-03-24T17:26:59;19.88;;;3.97;;
545;SDS011;259;53.304;9.816;2023-03-24T17:29:27;11.90;;;2.80;;
545;SDS011;259;53.304;9.816;2023-03-24T17:31:53;17.00;;;3.50;;
545;SDS011;259;53.304;9.816;2023-03-24T17:34:18;15.73;;;3.10;;
545;SDS011;259;53.304;9.816;2023-03-24T17:36:45;13.30;;;3.33;;
545;SDS011;259;53.304;9.816;2023-03-24T17:39:14;15.10;;;3.50;;
545;SDS011;259;53.304;9.816;2023-03-24T17:41:41;17.20;;;3.20;;
545;SDS011;259;53.304;9.816;2023-03-24T17:44:07;13.03;;;3.13;;
545;SDS011;259;53.304;9.816;2023-03-24T17:46:33;7.90;;;2.73;;
545;SDS011;259;53.304;9.816;2023-03-24T17:48:58;9.60;;;3.03;;
545;SDS011;259;53.304;9.816;2023-03-24T17:51:25;12.07;;;3.63;;
545;SDS011;259;53.304;9.816;2023-03-24T17:53:52;9.73;;;2.50;;
545;SDS011;259;53.304;9.816;2023-03-24T17:56:17;8.43;;;2.40;;
545;SDS011;259;53.304;9.816;2023-03-24T17:58:44;6.95;;;2.08;;
545;SDS011;259;53.304;9.816;2023-03-24T18:01:11;8.23;;;2.40;;
545;SDS011;259;53.304;9.816;2023-03-24T18:03:39;4.43;;;1.83;;
545;SDS011;259;53.304;9.816;2023-03-24T18:06:11;5.47;;;1.83;;
545;SDS011;259;53.304;9.816;2023-03-24T18:08:40;8.67;;;2.60;;
545;SDS011;259;53.304;9.816;2023-03-24T18:11:07;8.23;;;2.17;;
545;SDS011;259;53.304;9.816;2023-03-24T18:13:35;13.17;;;2.57;;
545;SDS011;259;53.304;9.816;2023-03-24T18:16:01;6.37;;;2.10;;
545;SDS011;259;53.304;9.816;2023-03-24T18:18:30;11.10;;;2.07;;
545;SDS011;259;53.304;9.816;2023-03-24T18:20:57;4.33;;;1.93;;
545;SDS011;259;53.304;9.816;2023-03-24T18:23:22;6.23;;;1.90;;
545;SDS011;259;53.304;9.816;2023-03-24T18:25:55;3.93;;;1.57;;
545;SDS011;259;53.304;9.816;2023-03-24T18:28:25;3.00;;;1.50;;
545;SDS011;259;53.304;9.816;2023-03-24T18:30:52;3.50;;;1.73;;
545;SDS011;259;53.304;9.816;2023-03-24T18:33:18;4.63;;;1.70;;
545;SDS011;259;53.304;9.816;2023-03-24T18:35:50;5.23;;;2.10;;
545;SDS011;259;53.304;9.816;2023-03-24T18:38:17;3.50;;;1.80;;
545;SDS011;259;53.304;9.816;2023-03-24T18:40:47;3.23;;;1.60;;
545;SDS011;259;53.304;9.816;2023-03-24T18:43:42;6.87;;;2.60;;
545;SDS011;259;53.304;9.816;2023-03-24T18:46:11;12.57;;;2.10;;
545;SDS011;259;53.304;9.816;2023-03-24T18:48:38;14.77;;;2.30;;
545;SDS011;259;53.304;9.816;2023-03-24T18:51:06;7.83;;;2.20;;
545;SDS011;259;53.304;9.816;2023-03-24T18:53:32;12.87;;;2.87;;
545;SDS011;259;53.304;9.816;2023-03-24T18:55:58;11.50;;;2.87;;
545;SDS011;259;53.304;9.816;2023-03-24T18:58:25;8.30;;;2.23;;
545;SDS011;259;53.304;9.816;2023-03-24T19:00:53;9.18;;;2.38;;
545;SDS011;259;53.304;9.816;2023-03-24T19:03:21;11.77;;;2.67;;
545;SDS011;259;53.304;9.816;2023-03-24T19:05:48;6.27;;;1.57;;
545;SDS011;259;53.304;9.816;2023-03-24T19:08:17;8.73;;;2.20;;
545;SDS011;259;53.304;9.816;2023-03-24T19:10:43;9.30;;;2.43;;